sensor_id;sensor_type;location;lat;lon;timestamp;P1;durP1;ratioP1;P2;durP2;ratioP2
65757;SDS011;52495;52.208;5.158;2023-04-07T00:01:37;16.27;;;7.82;;
65757;SDS011;52495;52.208;5.158;2023-04-07T00:04:04;15.43;;;7.88;;
65757;SDS011;52495;52.208;5.158;2023-04-07T00:06:32;20.63;;;8.65;;
65757;SDS011;52495;52.208;5.158;2023-04-07T00:08:59;21.02;;;8.27;;
65757;SDS011;52495;52.208;5.158;2023-04-07T00:11:26;20.13;;;9.32;;
65757;SDS011;52495;52.208;5.158;2023-04-07T00:13:53;21.77;;;8.55;;
65757;SDS011;52495;52.208;5.158;2023-04-07T00:16:20;18.73;;;9.13;;
65757;SDS011;52495;52.208;5.158;2023-04-07T00:18:47;19.30;;;8.18;;
65757;SDS011;52495;52.208;5.158;2023-04-07T00:21:13;15.77;;;9.13;;
65757;SDS011;52495;52.208;5.158;2023-04-07T00:23:42;19.08;;;8.27;;
65757;SDS011;52495;52.208;5.158;2023-04-07T00:26:09;17.50;;;8.90;;
65757;SDS011;52495;52.208;5.158;2023-04-07T00:28:37;20.83;;;8.90;;
65757;SDS011;52495;52.208;5.158;2023-04-07T00:31:04;17.73;;;8.48;;
65757;SDS011;52495;52.208;5.158;2023-04-07T00:33:31;17.17;;;9.30;;
65757;SDS011;52495;52.208;5.158;2023-04-07T00:35:57;21.00;;;9.25;;
65757;SDS011;52495;52.208;5.158;2023-04-07T00:38:24;15.70;;;7.43;;
65757;SDS011;52495;52.208;5.158;2023-04-07T00:40:57;24.40;;;10.15;;
65757;SDS011;52495;52.208;5.158;2023-04-07T00:43:25;24.63;;;10.02;;
65757;SDS011;52495;52.208;5.158;2023-04-07T00:45:51;19.67;;;9.68;;
65757;SDS011;52495;52.208;5.158;2023-04-07T00:48:19;25.77;;;9.95;;
65757;SDS011;52495;52.208;5.158;2023-04-07T00:50:46;18.80;;;10.13;;
65757;SDS011;52495;52.208;5.158;2023-04-07T00:53:13;19.15;;;10.27;;
65757;SDS011;52495;52.208;5.158;2023-04-07T00:55:41;22.00;;;9.32;;
65757;SDS011;52495;52.208;5.158;2023-04-07T00:58:09;23.27;;;9.75;;
65757;SDS011;52495;52.208;5.158;2023-04-07T01:00:40;19.73;;;9.45;;
65757;SDS011;52495;52.208;5.158;2023-04-07T01:03:12;24.67;;;10.70;;
65757;SDS011;52495;52.208;5.158;2023-04-07T01:05:45;20.50;;;10.25;;
65757;SDS011;52495;52.208;5.158;2023-04-07T01:08:20;23.80;;;10.80;;
65757;SDS011;52495;52.208;5.158;2023-04-07T01:10:51;20.42;;;10.95;;
65757;SDS011;52495;52.208;5.158;2023-04-07T01:13:24;22.38;;;10.85;;
65757;SDS011;52495;52.208;5.158;2023-04-07T01:16:11;22.75;;;10.43;;
65757;SDS011;52495;52.208;5.158;2023-04-07T01:18:46;20.42;;;9.77;;
65757;SDS011;52495;52.208;5.158;2023-04-07T01:21:17;21.63;;;9.80;;
65757;SDS011;52495;52.208;5.158;2023-04-07T01:23:51;26.80;;;11.18;;
65757;SDS011;52495;52.208;5.158;2023-04-07T01:26:27;21.65;;;10.52;;
65757;SDS011;52495;52.208;5.158;2023-04-07T01:32:07;19.90;;;9.00;;
65757;SDS011;52495;52.208;5.158;2023-04-07T01:34:36;22.88;;;10.93;;
65757;SDS011;52495;52.208;5.158;2023-04-07T01:37:04;22.25;;;10.18;;
65757;SDS011;52495;52.208;5.158;2023-04-07T01:39:33;20.63;;;10.60;;
65757;SDS011;52495;52.208;5.158;2023-04-07T01:42:02;22.23;;;10.15;;
65757;SDS011;52495;52.208;5.158;2023-04-07T01:44:31;17.73;;;8.15;;
65757;SDS011;52495;52.208;5.158;2023-04-07T01:46:59;19.13;;;9.38;;
65757;SDS011;52495;52.208;5.158;2023-04-07T01:49:29;24.75;;;9.10;;
65757;SDS011;52495;52.208;5.158;2023-04-07T01:51:57;16.30;;;8.55;;
65757;SDS011;52495;52.208;5.158;2023-04-07T01:54:25;22.95;;;8.05;;
65757;SDS011;52495;52.208;5.158;2023-04-07T01:56:53;26.45;;;8.95;;
65757;SDS011;52495;52.208;5.158;2023-04-07T01:59:21;19.60;;;8.10;;
65757;SDS011;52495;52.208;5.158;2023-04-07T02:01:48;23.95;;;8.45;;
65757;SDS011;52495;52.208;5.158;2023-04-07T02:04:15;19.35;;;8.02;;
65757;SDS011;52495;52.208;5.158;2023-04-07T02:06:51;28.02;;;8.13;;
65757;SDS011;52495;52.208;5.158;2023-04-07T02:09:29;21.27;;;8.20;;
65757;SDS011;52495;52.208;5.158;2023-04-07T02:11:59;21.70;;;7.90;;
65757;SDS011;52495;52.208;5.158;2023-04-07T02:14:31;19.08;;;7.65;;
65757;SDS011;52495;52.208;5.158;2023-04-07T02:17:03;21.73;;;8.48;;
65757;SDS011;52495;52.208;5.158;2023-04-07T02:19:31;23.67;;;7.65;;
65757;SDS011;52495;52.208;5.158;2023-04-07T02:22:02;19.30;;;7.07;;
65757;SDS011;52495;52.208;5.158;2023-04-07T02:24:30;20.42;;;7.30;;
65757;SDS011;52495;52.208;5.158;2023-04-07T02:26:57;18.42;;;7.00;;
65757;SDS011;52495;52.208;5.158;2023-04-07T02:29:25;17.58;;;6.45;;
65757;SDS011;52495;52.208;5.158;2023-04-07T02:31:52;22.80;;;7.28;;
65757;SDS011;52495;52.208;5.158;2023-04-07T02:34:21;21.17;;;6.60;;
65757;SDS011;52495;52.208;5.158;2023-04-07T02:36:48;19.25;;;7.05;;
65757;SDS011;52495;52.208;5.158;2023-04-07T02:39:16;15.48;;;5.90;;
65757;SDS011;52495;52.208;5.158;2023-04-07T02:41:43;20.00;;;6.88;;
65757;SDS011;52495;52.208;5.158;2023-04-07T02:44:10;21.50;;;6.22;;
65757;SDS011;52495;52.208;5.158;2023-04-07T02:46:36;18.63;;;7.32;;
65757;SDS011;52495;52.208;5.158;2023-04-07T02:49:03;20.05;;;6.22;;
65757;SDS011;52495;52.208;5.158;2023-04-07T02:51:30;20.40;;;6.57;;
65757;SDS011;52495;52.208;5.158;2023-04-07T02:53:57;19.70;;;6.95;;
65757;SDS011;52495;52.208;5.158;2023-04-07T02:56:25;28.10;;;6.97;;
65757;SDS011;52495;52.208;5.158;2023-04-07T02:58:52;19.73;;;6.30;;
65757;SDS011;52495;52.208;5.158;2023-04-07T03:01:19;21.27;;;7.18;;
65757;SDS011;52495;52.208;5.158;2023-04-07T03:03:46;13.25;;;6.40;;
65757;SDS011;52495;52.208;5.158;2023-04-07T03:06:18;17.02;;;6.90;;
65757;SDS011;52495;52.208;5.158;2023-04-07T03:08:56;20.27;;;6.60;;
65757;SDS011;52495;52.208;5.158;2023-04-07T03:11:23;29.05;;;8.02;;
65757;SDS011;52495;52.208;5.158;2023-04-07T03:13:52;22.05;;;8.02;;
65757;SDS011;52495;52.208;5.158;2023-04-07T03:16:19;20.92;;;7.22;;
65757;SDS011;52495;52.208;5.158;2023-04-07T03:19:03;25.23;;;6.72;;
65757;SDS011;52495;52.208;5.158;2023-04-07T03:21:35;23.35;;;6.78;;
65757;SDS011;52495;52.208;5.158;2023-04-07T03:24:03;14.77;;;7.35;;
65757;SDS011;52495;52.208;5.158;2023-04-07T03:26:30;19.73;;;7.35;;
65757;SDS011;52495;52.208;5.158;2023-04-07T03:29:00;19.17;;;6.28;;
65757;SDS011;52495;52.208;5.158;2023-04-07T03:31:29;21.13;;;7.20;;
65757;SDS011;52495;52.208;5.158;2023-04-07T03:33:56;19.83;;;8.38;;
65757;SDS011;52495;52.208;5.158;2023-04-07T03:36:23;27.40;;;9.10;;
65757;SDS011;52495;52.208;5.158;2023-04-07T03:38:55;20.85;;;8.68;;
65757;SDS011;52495;52.208;5.158;2023-04-07T03:41:21;23.50;;;9.30;;
65757;SDS011;52495;52.208;5.158;2023-04-07T03:43:48;24.13;;;10.07;;
65757;SDS011;52495;52.208;5.158;2023-04-07T03:46:19;19.67;;;9.75;;
65757;SDS011;52495;52.208;5.158;2023-04-07T03:48:46;23.55;;;10.05;;
65757;SDS011;52495;52.208;5.158;2023-04-07T03:51:13;23.25;;;10.85;;
65757;SDS011;52495;52.208;5.158;2023-04-07T03:53:40;24.73;;;10.35;;
65757;SDS011;52495;52.208;5.158;2023-04-07T03:56:27;26.88;;;9.70;;
65757;SDS011;52495;52.208;5.158;2023-04-07T03:58:56;25.85;;;9.95;;
65757;SDS011;52495;52.208;5.158;2023-04-07T04:01:32;23.85;;;8.98;;
65757;SDS011;52495;52.208;5.158;2023-04-07T04:04:06;25.70;;;9.43;;
65757;SDS011;52495;52.208;5.158;2023-04-07T04:06:33;21.92;;;9.40;;
65757;SDS011;52495;52.208;5.158;2023-04-07T04:09:23;19.02;;;9.27;;
65757;SDS011;52495;52.208;5.158;2023-04-07T04:11:50;21.33;;;8.32;;
65757;SDS011;52495;52.208;5.158;2023-04-07T04:14:17;16.33;;;7.72;;
65757;SDS011;52495;52.208;5.158;2023-04-07T04:16:55;11.00;;;5.80;;
65757;SDS011;52495;52.208;5.158;2023-04-07T04:19:28;10.52;;;4.35;;
65757;SDS011;52495;52.208;5.158;2023-04-07T04:21:59;12.18;;;4.90;;
65757;SDS011;52495;52.208;5.158;2023-04-07T04:24:30;9.52;;;3.90;;
65757;SDS011;52495;52.208;5.158;2023-04-07T04:27:00;14.43;;;4.38;;
65757;SDS011;52495;52.208;5.158;2023-04-07T04:29:27;16.73;;;6.03;;
65757;SDS011;52495;52.208;5.158;2023-04-07T04:31:57;11.05;;;4.72;;
65757;SDS011;52495;52.208;5.158;2023-04-07T04:34:24;13.20;;;4.57;;
65757;SDS011;52495;52.208;5.158;2023-04-07T04:36:53;13.27;;;5.80;;
65757;SDS011;52495;52.208;5.158;2023-04-07T04:39:20;11.98;;;5.95;;
65757;SDS011;52495;52.208;5.158;2023-04-07T04:41:47;11.35;;;4.72;;
65757;SDS011;52495;52.208;5.158;2023-04-07T04:44:15;15.05;;;5.35;;
65757;SDS011;52495;52.208;5.158;2023-04-07T04:46:43;16.58;;;4.50;;
65757;SDS011;52495;52.208;5.158;2023-04-07T04:49:11;12.55;;;4.05;;
65757;SDS011;52495;52.208;5.158;2023-04-07T04:51:40;11.52;;;4.57;;
65757;SDS011;52495;52.208;5.158;2023-04-07T04:54:13;13.68;;;4.55;;
65757;SDS011;52495;52.208;5.158;2023-04-07T04:56:41;16.50;;;4.47;;
65757;SDS011;52495;52.208;5.158;2023-04-07T04:59:09;11.65;;;4.05;;
65757;SDS011;52495;52.208;5.158;2023-04-07T05:01:42;14.50;;;4.30;;
65757;SDS011;52495;52.208;5.158;2023-04-07T05:04:14;12.38;;;5.75;;
65757;SDS011;52495;52.208;5.158;2023-04-07T05:06:47;13.35;;;6.03;;
65757;SDS011;52495;52.208;5.158;2023-04-07T05:09:17;14.10;;;5.45;;
65757;SDS011;52495;52.208;5.158;2023-04-07T05:11:46;17.00;;;6.22;;
65757;SDS011;52495;52.208;5.158;2023-04-07T05:14:14;15.77;;;6.03;;
65757;SDS011;52495;52.208;5.158;2023-04-07T05:16:46;15.10;;;6.50;;
65757;SDS011;52495;52.208;5.158;2023-04-07T05:19:20;14.23;;;5.53;;
65757;SDS011;52495;52.208;5.158;2023-04-07T05:21:48;15.23;;;5.97;;
65757;SDS011;52495;52.208;5.158;2023-04-07T05:24:18;19.83;;;6.30;;
65757;SDS011;52495;52.208;5.158;2023-04-07T05:26:49;13.32;;;5.55;;
65757;SDS011;52495;52.208;5.158;2023-04-07T05:29:16;13.60;;;5.57;;
65757;SDS011;52495;52.208;5.158;2023-04-07T05:31:43;13.43;;;5.63;;
65757;SDS011;52495;52.208;5.158;2023-04-07T05:34:13;13.27;;;6.13;;
65757;SDS011;52495;52.208;5.158;2023-04-07T05:36:47;14.25;;;5.85;;
65757;SDS011;52495;52.208;5.158;2023-04-07T05:39:15;14.00;;;5.55;;
65757;SDS011;52495;52.208;5.158;2023-04-07T05:41:42;18.52;;;6.43;;
65757;SDS011;52495;52.208;5.158;2023-04-07T05:44:11;18.55;;;6.65;;
65757;SDS011;52495;52.208;5.158;2023-04-07T05:46:40;15.75;;;6.53;;
65757;SDS011;52495;52.208;5.158;2023-04-07T05:49:08;15.88;;;6.35;;
65757;SDS011;52495;52.208;5.158;2023-04-07T05:51:34;15.73;;;6.25;;
65757;SDS011;52495;52.208;5.158;2023-04-07T05:54:09;22.38;;;6.43;;
65757;SDS011;52495;52.208;5.158;2023-04-07T05:56:36;14.23;;;6.63;;
65757;SDS011;52495;52.208;5.158;2023-04-07T05:59:04;16.02;;;7.10;;
65757;SDS011;52495;52.208;5.158;2023-04-07T06:01:31;16.73;;;6.50;;
65757;SDS011;52495;52.208;5.158;2023-04-07T06:03:58;15.25;;;6.90;;
65757;SDS011;52495;52.208;5.158;2023-04-07T06:06:26;16.52;;;7.05;;
65757;SDS011;52495;52.208;5.158;2023-04-07T06:08:53;20.45;;;7.32;;
65757;SDS011;52495;52.208;5.158;2023-04-07T06:11:23;18.88;;;7.50;;
65757;SDS011;52495;52.208;5.158;2023-04-07T06:13:51;15.52;;;7.00;;
65757;SDS011;52495;52.208;5.158;2023-04-07T06:16:18;13.70;;;7.05;;
65757;SDS011;52495;52.208;5.158;2023-04-07T06:18:45;21.05;;;7.55;;
65757;SDS011;52495;52.208;5.158;2023-04-07T06:21:12;17.25;;;7.85;;
65757;SDS011;52495;52.208;5.158;2023-04-07T06:23:39;17.42;;;7.63;;
65757;SDS011;52495;52.208;5.158;2023-04-07T06:26:09;21.42;;;8.13;;
65757;SDS011;52495;52.208;5.158;2023-04-07T06:28:37;16.33;;;7.65;;
65757;SDS011;52495;52.208;5.158;2023-04-07T06:31:04;22.05;;;8.50;;
65757;SDS011;52495;52.208;5.158;2023-04-07T06:33:31;17.42;;;6.88;;
65757;SDS011;52495;52.208;5.158;2023-04-07T06:35:58;20.58;;;8.20;;
65757;SDS011;52495;52.208;5.158;2023-04-07T06:38:25;17.90;;;7.38;;
65757;SDS011;52495;52.208;5.158;2023-04-07T06:40:52;17.88;;;7.20;;
65757;SDS011;52495;52.208;5.158;2023-04-07T06:43:19;18.20;;;7.20;;
65757;SDS011;52495;52.208;5.158;2023-04-07T06:45:55;13.50;;;7.15;;
65757;SDS011;52495;52.208;5.158;2023-04-07T06:48:22;28.38;;;7.97;;
65757;SDS011;52495;52.208;5.158;2023-04-07T06:50:49;17.92;;;7.90;;
65757;SDS011;52495;52.208;5.158;2023-04-07T06:53:16;16.90;;;7.60;;
65757;SDS011;52495;52.208;5.158;2023-04-07T06:55:45;16.13;;;6.85;;
65757;SDS011;52495;52.208;5.158;2023-04-07T06:58:11;16.77;;;6.07;;
65757;SDS011;52495;52.208;5.158;2023-04-07T07:00:39;21.58;;;7.05;;
65757;SDS011;52495;52.208;5.158;2023-04-07T07:03:09;25.13;;;7.18;;
65757;SDS011;52495;52.208;5.158;2023-04-07T07:05:36;17.63;;;6.60;;
65757;SDS011;52495;52.208;5.158;2023-04-07T07:08:03;20.70;;;5.97;;
65757;SDS011;52495;52.208;5.158;2023-04-07T07:10:30;16.52;;;6.30;;
65757;SDS011;52495;52.208;5.158;2023-04-07T07:12:57;16.77;;;5.65;;
65757;SDS011;52495;52.208;5.158;2023-04-07T07:15:24;14.43;;;5.85;;
65757;SDS011;52495;52.208;5.158;2023-04-07T07:17:51;18.58;;;5.63;;
65757;SDS011;52495;52.208;5.158;2023-04-07T07:20:19;16.75;;;5.38;;
65757;SDS011;52495;52.208;5.158;2023-04-07T07:23:06;14.90;;;4.65;;
65757;SDS011;52495;52.208;5.158;2023-04-07T07:25:44;9.13;;;3.50;;
65757;SDS011;52495;52.208;5.158;2023-04-07T07:28:11;9.30;;;3.75;;
65757;SDS011;52495;52.208;5.158;2023-04-07T07:30:38;14.75;;;4.03;;
65757;SDS011;52495;52.208;5.158;2023-04-07T07:33:06;15.40;;;3.60;;
65757;SDS011;52495;52.208;5.158;2023-04-07T07:35:35;14.50;;;4.72;;
65757;SDS011;52495;52.208;5.158;2023-04-07T07:38:02;12.95;;;4.32;;
65757;SDS011;52495;52.208;5.158;2023-04-07T07:40:29;17.38;;;4.78;;
65757;SDS011;52495;52.208;5.158;2023-04-07T07:42:56;11.60;;;3.67;;
65757;SDS011;52495;52.208;5.158;2023-04-07T07:45:23;17.50;;;4.35;;
65757;SDS011;52495;52.208;5.158;2023-04-07T07:47:50;13.20;;;3.67;;
65757;SDS011;52495;52.208;5.158;2023-04-07T07:50:17;10.63;;;3.80;;
65757;SDS011;52495;52.208;5.158;2023-04-07T07:52:46;12.40;;;3.60;;
65757;SDS011;52495;52.208;5.158;2023-04-07T07:55:13;9.38;;;2.83;;
65757;SDS011;52495;52.208;5.158;2023-04-07T07:57:40;18.10;;;3.85;;
65757;SDS011;52495;52.208;5.158;2023-04-07T08:00:07;10.90;;;3.00;;
65757;SDS011;52495;52.208;5.158;2023-04-07T08:02:40;14.02;;;3.20;;
65757;SDS011;52495;52.208;5.158;2023-04-07T08:05:08;9.23;;;3.05;;
65757;SDS011;52495;52.208;5.158;2023-04-07T08:07:35;14.45;;;2.75;;
65757;SDS011;52495;52.208;5.158;2023-04-07T08:10:04;8.75;;;3.40;;
65757;SDS011;52495;52.208;5.158;2023-04-07T08:12:31;12.10;;;3.17;;
65757;SDS011;52495;52.208;5.158;2023-04-07T08:14:58;12.63;;;3.08;;
65757;SDS011;52495;52.208;5.158;2023-04-07T08:17:25;11.35;;;2.92;;
65757;SDS011;52495;52.208;5.158;2023-04-07T08:19:52;14.10;;;3.78;;
65757;SDS011;52495;52.208;5.158;2023-04-07T08:22:19;10.52;;;3.90;;
65757;SDS011;52495;52.208;5.158;2023-04-07T08:24:46;12.15;;;3.50;;
65757;SDS011;52495;52.208;5.158;2023-04-07T08:27:14;13.00;;;3.25;;
65757;SDS011;52495;52.208;5.158;2023-04-07T08:29:41;13.20;;;3.00;;
65757;SDS011;52495;52.208;5.158;2023-04-07T08:32:08;12.52;;;2.72;;
65757;SDS011;52495;52.208;5.158;2023-04-07T08:34:34;12.32;;;4.13;;
65757;SDS011;52495;52.208;5.158;2023-04-07T08:37:01;13.57;;;3.70;;
65757;SDS011;52495;52.208;5.158;2023-04-07T08:39:28;5.50;;;2.60;;
65757;SDS011;52495;52.208;5.158;2023-04-07T08:41:56;10.38;;;2.72;;
65757;SDS011;52495;52.208;5.158;2023-04-07T08:44:25;12.45;;;3.53;;
65757;SDS011;52495;52.208;5.158;2023-04-07T08:46:55;8.32;;;3.10;;
65757;SDS011;52495;52.208;5.158;2023-04-07T08:49:24;10.77;;;3.08;;
65757;SDS011;52495;52.208;5.158;2023-04-07T08:51:54;14.07;;;3.83;;
65757;SDS011;52495;52.208;5.158;2023-04-07T08:54:25;9.60;;;3.20;;
65757;SDS011;52495;52.208;5.158;2023-04-07T08:56:53;10.98;;;2.78;;
65757;SDS011;52495;52.208;5.158;2023-04-07T08:59:21;6.18;;;2.35;;
65757;SDS011;52495;52.208;5.158;2023-04-07T09:01:54;9.65;;;2.67;;
65757;SDS011;52495;52.208;5.158;2023-04-07T09:04:21;7.55;;;2.67;;
65757;SDS011;52495;52.208;5.158;2023-04-07T09:06:48;15.02;;;3.10;;
65757;SDS011;52495;52.208;5.158;2023-04-07T09:09:15;9.98;;;3.05;;
65757;SDS011;52495;52.208;5.158;2023-04-07T09:11:42;7.13;;;2.45;;
65757;SDS011;52495;52.208;5.158;2023-04-07T09:14:09;8.68;;;2.88;;
65757;SDS011;52495;52.208;5.158;2023-04-07T09:16:36;12.48;;;2.90;;
65757;SDS011;52495;52.208;5.158;2023-04-07T09:19:04;9.93;;;2.97;;
65757;SDS011;52495;52.208;5.158;2023-04-07T09:21:45;6.90;;;1.85;;
65757;SDS011;52495;52.208;5.158;2023-04-07T09:24:20;8.80;;;2.50;;
65757;SDS011;52495;52.208;5.158;2023-04-07T09:26:48;5.53;;;2.33;;
65757;SDS011;52495;52.208;5.158;2023-04-07T09:29:17;4.95;;;2.33;;
65757;SDS011;52495;52.208;5.158;2023-04-07T09:31:45;8.05;;;2.50;;
65757;SDS011;52495;52.208;5.158;2023-04-07T09:34:25;5.20;;;2.50;;
65757;SDS011;52495;52.208;5.158;2023-04-07T09:36:53;7.35;;;2.05;;
65757;SDS011;52495;52.208;5.158;2023-04-07T09:39:20;11.68;;;3.10;;
65757;SDS011;52495;52.208;5.158;2023-04-07T09:41:48;12.70;;;2.80;;
65757;SDS011;52495;52.208;5.158;2023-04-07T09:44:15;9.80;;;2.40;;
65757;SDS011;52495;52.208;5.158;2023-04-07T09:46:48;10.85;;;3.28;;
65757;SDS011;52495;52.208;5.158;2023-04-07T09:49:16;5.00;;;2.20;;
65757;SDS011;52495;52.208;5.158;2023-04-07T09:51:55;10.50;;;3.17;;
65757;SDS011;52495;52.208;5.158;2023-04-07T09:54:33;7.93;;;2.42;;
65757;SDS011;52495;52.208;5.158;2023-04-07T09:57:02;8.18;;;2.53;;
65757;SDS011;52495;52.208;5.158;2023-04-07T09:59:30;10.30;;;2.75;;
65757;SDS011;52495;52.208;5.158;2023-04-07T10:01:57;10.70;;;2.90;;
65757;SDS011;52495;52.208;5.158;2023-04-07T10:04:25;8.35;;;3.20;;
65757;SDS011;52495;52.208;5.158;2023-04-07T10:06:55;7.18;;;2.70;;
65757;SDS011;52495;52.208;5.158;2023-04-07T10:09:23;8.18;;;3.22;;
65757;SDS011;52495;52.208;5.158;2023-04-07T10:11:52;10.25;;;3.47;;
65757;SDS011;52495;52.208;5.158;2023-04-07T10:14:21;15.18;;;3.60;;
65757;SDS011;52495;52.208;5.158;2023-04-07T10:16:51;8.43;;;3.03;;
65757;SDS011;52495;52.208;5.158;2023-04-07T10:19:18;13.07;;;4.40;;
65757;SDS011;52495;52.208;5.158;2023-04-07T10:21:46;12.43;;;3.20;;
65757;SDS011;52495;52.208;5.158;2023-04-07T10:24:22;13.52;;;3.63;;
65757;SDS011;52495;52.208;5.158;2023-04-07T10:26:59;10.93;;;3.10;;
65757;SDS011;52495;52.208;5.158;2023-04-07T10:29:33;5.53;;;2.72;;
65757;SDS011;52495;52.208;5.158;2023-04-07T10:32:03;11.35;;;3.25;;
65757;SDS011;52495;52.208;5.158;2023-04-07T10:37:25;7.88;;;2.90;;
65757;SDS011;52495;52.208;5.158;2023-04-07T10:42:55;7.63;;;3.50;;
65757;SDS011;52495;52.208;5.158;2023-04-07T10:48:25;11.60;;;3.65;;
65757;SDS011;52495;52.208;5.158;2023-04-07T10:57:05;13.82;;;4.40;;
65757;SDS011;52495;52.208;5.158;2023-04-07T10:59:36;8.20;;;3.25;;
65757;SDS011;52495;52.208;5.158;2023-04-07T11:04:57;9.52;;;3.05;;
65757;SDS011;52495;52.208;5.158;2023-04-07T11:10:11;11.98;;;3.15;;
65757;SDS011;52495;52.208;5.158;2023-04-07T11:12:41;12.95;;;3.60;;
65757;SDS011;52495;52.208;5.158;2023-04-07T11:15:18;12.35;;;3.65;;
65757;SDS011;52495;52.208;5.158;2023-04-07T11:17:46;9.98;;;2.60;;
65757;SDS011;52495;52.208;5.158;2023-04-07T11:20:39;12.20;;;3.05;;
65757;SDS011;52495;52.208;5.158;2023-04-07T11:23:09;8.85;;;3.30;;
65757;SDS011;52495;52.208;5.158;2023-04-07T11:25:36;8.65;;;2.38;;
65757;SDS011;52495;52.208;5.158;2023-04-07T11:28:04;8.07;;;2.80;;
65757;SDS011;52495;52.208;5.158;2023-04-07T11:30:31;11.75;;;2.45;;
65757;SDS011;52495;52.208;5.158;2023-04-07T11:33:00;9.27;;;2.25;;
65757;SDS011;52495;52.208;5.158;2023-04-07T11:35:27;6.95;;;1.80;;
65757;SDS011;52495;52.208;5.158;2023-04-07T11:37:57;10.18;;;2.35;;
65757;SDS011;52495;52.208;5.158;2023-04-07T11:40:31;10.65;;;2.42;;
65757;SDS011;52495;52.208;5.158;2023-04-07T11:43:01;15.13;;;3.25;;
65757;SDS011;52495;52.208;5.158;2023-04-07T11:45:29;7.55;;;2.03;;
65757;SDS011;52495;52.208;5.158;2023-04-07T11:47:57;8.38;;;2.58;;
65757;SDS011;52495;52.208;5.158;2023-04-07T11:50:37;8.93;;;3.10;;
65757;SDS011;52495;52.208;5.158;2023-04-07T11:53:05;9.82;;;2.72;;
65757;SDS011;52495;52.208;5.158;2023-04-07T11:55:33;10.63;;;3.35;;
65757;SDS011;52495;52.208;5.158;2023-04-07T11:58:05;9.82;;;2.42;;
65757;SDS011;52495;52.208;5.158;2023-04-07T12:00:35;7.25;;;2.70;;
65757;SDS011;52495;52.208;5.158;2023-04-07T12:03:18;7.03;;;2.20;;
65757;SDS011;52495;52.208;5.158;2023-04-07T12:05:45;7.63;;;2.63;;
65757;SDS011;52495;52.208;5.158;2023-04-07T12:08:15;11.13;;;3.15;;
65757;SDS011;52495;52.208;5.158;2023-04-07T12:10:42;11.05;;;3.20;;
65757;SDS011;52495;52.208;5.158;2023-04-07T12:13:11;13.18;;;4.07;;
65757;SDS011;52495;52.208;5.158;2023-04-07T12:15:41;12.68;;;3.70;;
65757;SDS011;52495;52.208;5.158;2023-04-07T12:18:07;15.27;;;4.60;;
65757;SDS011;52495;52.208;5.158;2023-04-07T12:20:40;14.75;;;4.32;;
65757;SDS011;52495;52.208;5.158;2023-04-07T12:23:08;11.85;;;3.67;;
65757;SDS011;52495;52.208;5.158;2023-04-07T12:25:35;12.98;;;3.25;;
65757;SDS011;52495;52.208;5.158;2023-04-07T12:28:01;12.80;;;3.42;;
65757;SDS011;52495;52.208;5.158;2023-04-07T12:30:28;7.57;;;3.33;;
65757;SDS011;52495;52.208;5.158;2023-04-07T12:32:56;11.27;;;3.42;;
65757;SDS011;52495;52.208;5.158;2023-04-07T12:35:23;15.43;;;3.97;;
65757;SDS011;52495;52.208;5.158;2023-04-07T12:37:50;11.40;;;3.90;;
65757;SDS011;52495;52.208;5.158;2023-04-07T12:40:17;14.52;;;3.50;;
65757;SDS011;52495;52.208;5.158;2023-04-07T12:42:44;9.35;;;3.50;;
65757;SDS011;52495;52.208;5.158;2023-04-07T12:45:12;14.93;;;4.82;;
65757;SDS011;52495;52.208;5.158;2023-04-07T12:47:39;9.70;;;4.00;;
65757;SDS011;52495;52.208;5.158;2023-04-07T12:50:08;13.73;;;3.90;;
65757;SDS011;52495;52.208;5.158;2023-04-07T12:52:35;11.02;;;3.38;;
65757;SDS011;52495;52.208;5.158;2023-04-07T12:55:03;11.40;;;3.83;;
65757;SDS011;52495;52.208;5.158;2023-04-07T12:57:30;12.95;;;4.10;;
65757;SDS011;52495;52.208;5.158;2023-04-07T12:59:57;10.57;;;3.42;;
65757;SDS011;52495;52.208;5.158;2023-04-07T13:02:24;12.25;;;4.07;;
65757;SDS011;52495;52.208;5.158;2023-04-07T13:04:51;9.43;;;3.60;;
65757;SDS011;52495;52.208;5.158;2023-04-07T13:07:19;13.60;;;3.80;;
65757;SDS011;52495;52.208;5.158;2023-04-07T13:09:46;10.07;;;3.40;;
65757;SDS011;52495;52.208;5.158;2023-04-07T13:12:13;5.85;;;3.00;;
65757;SDS011;52495;52.208;5.158;2023-04-07T13:14:40;7.90;;;3.17;;
65757;SDS011;52495;52.208;5.158;2023-04-07T13:17:08;12.45;;;3.88;;
65757;SDS011;52495;52.208;5.158;2023-04-07T13:19:36;11.85;;;4.20;;
65757;SDS011;52495;52.208;5.158;2023-04-07T13:22:04;11.07;;;5.57;;
65757;SDS011;52495;52.208;5.158;2023-04-07T13:24:32;12.90;;;5.80;;
65757;SDS011;52495;52.208;5.158;2023-04-07T13:26:59;12.35;;;5.68;;
65757;SDS011;52495;52.208;5.158;2023-04-07T13:29:27;16.15;;;6.72;;
65757;SDS011;52495;52.208;5.158;2023-04-07T13:32:03;14.77;;;6.78;;
65757;SDS011;52495;52.208;5.158;2023-04-07T13:34:30;10.55;;;4.90;;
65757;SDS011;52495;52.208;5.158;2023-04-07T13:36:57;18.27;;;5.93;;
65757;SDS011;52495;52.208;5.158;2023-04-07T13:39:24;11.77;;;5.20;;
65757;SDS011;52495;52.208;5.158;2023-04-07T13:41:52;12.63;;;5.00;;
65757;SDS011;52495;52.208;5.158;2023-04-07T13:44:20;10.23;;;4.63;;
65757;SDS011;52495;52.208;5.158;2023-04-07T13:46:47;14.75;;;4.30;;
65757;SDS011;52495;52.208;5.158;2023-04-07T13:49:14;9.75;;;4.38;;
65757;SDS011;52495;52.208;5.158;2023-04-07T13:51:41;11.85;;;5.03;;
65757;SDS011;52495;52.208;5.158;2023-04-07T13:54:08;11.73;;;4.82;;
65757;SDS011;52495;52.208;5.158;2023-04-07T13:56:35;12.38;;;4.80;;
65757;SDS011;52495;52.208;5.158;2023-04-07T13:59:04;12.32;;;4.68;;
65757;SDS011;52495;52.208;5.158;2023-04-07T14:01:33;11.15;;;4.57;;
65757;SDS011;52495;52.208;5.158;2023-04-07T14:04:03;12.40;;;4.43;;
65757;SDS011;52495;52.208;5.158;2023-04-07T14:06:30;9.57;;;4.22;;
65757;SDS011;52495;52.208;5.158;2023-04-07T14:08:57;11.13;;;4.93;;
65757;SDS011;52495;52.208;5.158;2023-04-07T14:11:24;11.05;;;4.90;;
65757;SDS011;52495;52.208;5.158;2023-04-07T14:13:51;8.88;;;4.20;;
65757;SDS011;52495;52.208;5.158;2023-04-07T14:16:20;10.68;;;4.70;;
65757;SDS011;52495;52.208;5.158;2023-04-07T14:18:47;9.60;;;4.80;;
65757;SDS011;52495;52.208;5.158;2023-04-07T14:21:15;10.65;;;5.18;;
65757;SDS011;52495;52.208;5.158;2023-04-07T14:23:42;9.88;;;4.60;;
65757;SDS011;52495;52.208;5.158;2023-04-07T14:26:09;11.00;;;4.70;;
65757;SDS011;52495;52.208;5.158;2023-04-07T14:28:37;11.50;;;4.28;;
65757;SDS011;52495;52.208;5.158;2023-04-07T14:31:04;10.00;;;3.88;;
65757;SDS011;52495;52.208;5.158;2023-04-07T14:33:33;10.40;;;4.97;;
65757;SDS011;52495;52.208;5.158;2023-04-07T14:36:00;8.00;;;4.78;;
65757;SDS011;52495;52.208;5.158;2023-04-07T14:38:27;13.00;;;4.82;;
65757;SDS011;52495;52.208;5.158;2023-04-07T14:40:53;16.00;;;6.00;;
65757;SDS011;52495;52.208;5.158;2023-04-07T14:43:20;13.13;;;5.55;;
65757;SDS011;52495;52.208;5.158;2023-04-07T14:45:47;13.13;;;6.38;;
65757;SDS011;52495;52.208;5.158;2023-04-07T14:48:15;13.07;;;5.00;;
65757;SDS011;52495;52.208;5.158;2023-04-07T14:50:44;10.70;;;4.53;;
65757;SDS011;52495;52.208;5.158;2023-04-07T14:53:10;13.40;;;5.55;;
65757;SDS011;52495;52.208;5.158;2023-04-07T14:55:37;15.90;;;5.82;;
65757;SDS011;52495;52.208;5.158;2023-04-07T14:58:05;10.13;;;4.38;;
65757;SDS011;52495;52.208;5.158;2023-04-07T15:00:32;13.10;;;6.55;;
65757;SDS011;52495;52.208;5.158;2023-04-07T15:02:59;14.93;;;5.90;;
65757;SDS011;52495;52.208;5.158;2023-04-07T15:05:26;17.38;;;6.95;;
65757;SDS011;52495;52.208;5.158;2023-04-07T15:07:56;17.60;;;7.40;;
65757;SDS011;52495;52.208;5.158;2023-04-07T15:10:23;17.42;;;7.22;;